Time;durP1;ratioP1;P1;durP2;ratioP2;P2;SDS_P1;SDS_P2;PMS_P1;PMS_P2;Temp;Humidity;BMP_temperature;BMP_pressure;BME280_temperature;BME280_humidity;BME280_pressure;Samples;Min_cycle;Max_cycle;Signal;HPM_P1;HPM_P2
2021/07/31 00:04:44;;;;;;;5.93;2.72;;;16.30;99.90;;;;;;12533087;28;20044;-84
2021/07/31 00:10:46;;;;;;;7.97;2.78;;;16.50;99.90;;;;;;12527886;28;20136;-84
2021/07/31 00:16:47;;;;;;;7.68;2.22;;;16.40;99.90;;;;;;12526180;28;20044;-85
2021/07/31 00:22:49;;;;;;;6.43;2.30;;;16.40;99.90;;;;;;12538554;28;20045;-84
2021/07/31 00:28:51;;;;;;;7.88;2.15;;;16.40;99.90;;;;;;12533306;28;20532;-84
2021/07/31 00:34:53;;;;;;;5.35;2.03;;;16.50;99.90;;;;;;12521452;28;20045;-85
2021/07/31 00:40:55;;;;;;;5.47;2.00;;;16.50;99.90;;;;;;12532226;28;20049;-84
2021/07/31 00:46:57;;;;;;;3.45;1.50;;;16.40;99.90;;;;;;12529776;28;20208;-83
2021/07/31 00:53:02;;;;;;;6.18;1.65;;;16.40;99.90;;;;;;12523027;28;20044;-84
2021/07/31 00:59:03;;;;;;;5.72;1.42;;;16.30;99.90;;;;;;12528252;28;20268;-83
2021/07/31 01:05:06;;;;;;;13.20;2.08;;;16.30;99.90;;;;;;12527485;28;20041;-83
2021/07/31 01:11:08;;;;;;;5.97;1.25;;;16.30;99.90;;;;;;12524683;28;20049;-85
2021/07/31 01:17:12;;;;;;;4.70;1.33;;;16.30;99.90;;;;;;12538584;28;20101;-84
2021/07/31 01:23:14;;;;;;;7.93;1.48;;;16.30;99.90;;;;;;12532880;28;20052;-84
2021/07/31 01:29:17;;;;;;;10.00;1.83;;;16.10;99.90;;;;;;12516303;28;20048;-85
2021/07/31 01:35:19;;;;;;;15.00;2.27;;;16.20;99.90;;;;;;12533913;28;20166;-83
2021/07/31 01:41:21;;;;;;;6.13;1.38;;;16.20;99.90;;;;;;12526678;28;20374;-84
2021/07/31 01:47:23;;;;;;;11.85;1.90;;;16.20;99.90;;;;;;12526555;28;22213;-84
2021/07/31 01:53:25;;;;;;;5.53;1.20;;;16.10;99.90;;;;;;12527656;28;20090;-84
2021/07/31 01:59:27;;;;;;;8.38;1.63;;;16.10;99.90;;;;;;12527719;28;20417;-82
2021/07/31 02:05:29;;;;;;;3.40;1.13;;;16.00;99.90;;;;;;12525732;28;20549;-85
2021/07/31 02:11:30;;;;;;;5.45;1.35;;;15.70;99.90;;;;;;12529058;28;20202;-84
2021/07/31 02:17:32;;;;;;;3.28;1.10;;;15.70;99.90;;;;;;12524724;28;20728;-84
2021/07/31 02:23:35;;;;;;;8.73;1.55;;;15.70;99.90;;;;;;12549864;28;20057;-84
2021/07/31 02:29:36;;;;;;;4.70;1.20;;;15.70;99.90;;;;;;12538672;28;20521;-83
2021/07/31 02:35:38;;;;;;;7.13;1.30;;;15.70;99.90;;;;;;12523703;28;20830;-84
2021/07/31 02:41:40;;;;;;;7.15;1.30;;;15.70;99.90;;;;;;12523527;28;20040;-82
2021/07/31 02:47:41;;;;;;;5.53;1.35;;;15.70;99.90;;;;;;12528295;28;20044;-83
2021/07/31 02:53:43;;;;;;;7.03;1.40;;;15.70;99.90;;;;;;12529502;28;20126;-82
2021/07/31 02:59:45;;;;;;;8.38;1.42;;;15.80;99.90;;;;;;12536010;28;20476;-83
2021/07/31 03:05:58;;;;;;;9.50;1.73;;;15.80;99.90;;;;;;12523352;28;20060;-84
2021/07/31 03:12:00;;;;;;;5.20;1.10;;;15.80;99.90;;;;;;12536111;28;20048;-83
2021/07/31 03:18:02;;;;;;;3.03;1.00;;;15.80;99.90;;;;;;12530874;28;20086;-83
2021/07/31 03:24:04;;;;;;;8.80;1.65;;;15.90;99.90;;;;;;12519171;28;20049;-83
2021/07/31 03:30:07;;;;;;;3.60;1.05;;;15.80;99.90;;;;;;12524715;28;20451;-84
2021/07/31 03:36:09;;;;;;;5.15;1.05;;;15.60;99.90;;;;;;12528161;28;20044;-83
2021/07/31 03:42:10;;;;;;;4.07;1.70;;;15.60;99.90;;;;;;12530924;28;20095;-83
2021/07/31 03:48:12;;;;;;;6.93;1.30;;;15.70;99.90;;;;;;12530212;28;20049;-83
2021/07/31 03:54:14;;;;;;;6.80;1.92;;;15.70;99.90;;;;;;12541824;28;20106;-85
2021/07/31 04:00:16;;;;;;;4.43;1.10;;;15.70;99.90;;;;;;12523262;28;20053;-83
2021/07/31 04:06:18;;;;;;;4.15;1.05;;;15.50;99.90;;;;;;12531886;28;20101;-83
2021/07/31 04:12:20;;;;;;;10.57;1.50;;;15.50;99.90;;;;;;12522389;28;20144;-84
2021/07/31 04:18:22;;;;;;;5.82;1.58;;;15.50;99.90;;;;;;12538794;28;20544;-83
2021/07/31 04:24:25;;;;;;;4.97;1.58;;;15.50;99.90;;;;;;12529412;28;20074;-84
2021/07/31 04:30:27;;;;;;;7.95;1.25;;;15.50;99.90;;;;;;12536088;28;20045;-83
2021/07/31 04:36:31;;;;;;;6.03;1.27;;;15.20;99.90;;;;;;12529190;28;20060;-84
2021/07/31 04:42:33;;;;;;;2.88;1.10;;;15.60;99.90;;;;;;12532534;28;20413;-82
2021/07/31 04:48:36;;;;;;;6.00;1.35;;;15.50;99.90;;;;;;12520815;28;20686;-82
2021/07/31 04:54:40;;;;;;;5.90;1.48;;;15.70;99.90;;;;;;12527978;28;20045;-84
2021/07/31 05:00:42;;;;;;;4.95;1.50;;;15.70;99.90;;;;;;12545728;28;20098;-84
2021/07/31 05:06:43;;;;;;;6.03;1.38;;;15.50;99.90;;;;;;12535893;28;20527;-85
2021/07/31 05:12:45;;;;;;;4.15;1.52;;;15.80;99.90;;;;;;12526844;28;20454;-84
2021/07/31 05:18:47;;;;;;;5.35;1.50;;;15.90;99.90;;;;;;12540184;28;20821;-81
2021/07/31 05:24:53;;;;;;;6.88;1.60;;;16.10;99.90;;;;;;12532762;28;20454;-83
2021/07/31 05:30:55;;;;;;;8.00;1.58;;;15.80;99.90;;;;;;12528683;28;20045;-83
2021/07/31 05:36:57;;;;;;;5.68;1.58;;;16.10;99.90;;;;;;12534681;28;20071;-82
2021/07/31 05:42:59;;;;;;;4.97;1.50;;;16.10;99.90;;;;;;12530387;28;20048;-84
2021/07/31 05:49:00;;;;;;;5.50;1.45;;;16.20;99.90;;;;;;12529022;28;20045;-84
2021/07/31 05:55:04;;;;;;;4.75;1.60;;;16.20;99.90;;;;;;12536962;28;20127;-83
2021/07/31 06:01:09;;;;;;;8.67;1.53;;;16.30;99.90;;;;;;12549097;28;20066;-84
2021/07/31 06:07:11;;;;;;;7.63;1.40;;;16.10;99.90;;;;;;12554275;28;21346;-83
2021/07/31 06:13:13;;;;;;;4.45;1.42;;;16.00;99.90;;;;;;12526626;28;20044;-83
2021/07/31 06:19:15;;;;;;;5.68;1.50;;;16.30;99.90;;;;;;12532620;28;20504;-84
2021/07/31 06:25:17;;;;;;;4.75;1.30;;;16.40;99.90;;;;;;12531361;28;20044;-84
2021/07/31 06:31:19;;;;;;;4.32;1.30;;;16.40;99.90;;;;;;12521505;28;20063;-83
2021/07/31 06:37:21;;;;;;;4.15;1.60;;;16.40;99.90;;;;;;12534951;28;20055;-83
2021/07/31 06:43:23;;;;;;;5.47;1.42;;;16.10;99.90;;;;;;12540163;28;20071;-84
2021/07/31 06:49:24;;;;;;;5.90;1.60;;;16.50;99.90;;;;;;12540750;28;20682;-82
2021/07/31 06:55:26;;;;;;;7.30;1.40;;;16.40;99.90;;;;;;12541234;28;20060;-83
2021/07/31 07:01:28;;;;;;;7.60;1.73;;;16.50;99.90;;;;;;12530664;28;20045;-83
2021/07/31 07:07:30;;;;;;;3.65;1.20;;;16.60;99.90;;;;;;12527889;28;20121;-83
2021/07/31 07:13:33;;;;;;;4.80;1.40;;;16.50;99.90;;;;;;12539397;28;20083;-83
2021/07/31 07:19:35;;;;;;;3.75;1.30;;;16.60;99.90;;;;;;12533981;28;20049;-85
2021/07/31 07:25:38;;;;;;;4.43;1.60;;;16.60;99.90;;;;;;12528530;28;20045;-83
2021/07/31 07:31:40;;;;;;;5.43;1.60;;;16.50;99.90;;;;;;12540944;28;20045;-83
2021/07/31 07:37:42;;;;;;;5.75;1.73;;;16.80;99.90;;;;;;12532929;28;20056;-83
2021/07/31 07:43:44;;;;;;;7.03;1.83;;;16.80;99.90;;;;;;12527620;28;20041;-84
2021/07/31 07:49:46;;;;;;;4.07;1.70;;;17.00;99.90;;;;;;12534439;28;20074;-83
2021/07/31 07:55:48;;;;;;;5.43;1.67;;;16.80;99.90;;;;;;12533034;28;20098;-83
2021/07/31 08:01:50;;;;;;;4.82;1.83;;;16.90;99.90;;;;;;12537845;28;20037;-81
2021/07/31 08:07:52;;;;;;;6.75;2.22;;;16.80;99.90;;;;;;12547695;28;20433;-83
2021/07/31 08:13:54;;;;;;;5.25;1.90;;;17.10;99.90;;;;;;12529990;28;20523;-84
2021/07/31 08:19:56;;;;;;;8.95;2.28;;;17.10;99.90;;;;;;12530924;28;20134;-83
2021/07/31 08:25:58;;;;;;;4.65;2.00;;;17.20;99.90;;;;;;12533353;28;20087;-83
2021/07/31 08:32:00;;;;;;;9.38;2.30;;;17.10;99.90;;;;;;12516923;28;20572;-84
2021/07/31 08:38:02;;;;;;;4.63;1.83;;;17.00;99.90;;;;;;12519187;28;20981;-84
2021/07/31 08:44:04;;;;;;;4.13;1.80;;;17.30;99.90;;;;;;12527839;28;20160;-83
2021/07/31 08:50:09;;;;;;;3.83;1.67;;;17.70;99.90;;;;;;12528250;28;20037;-83
2021/07/31 08:56:11;;;;;;;5.78;1.95;;;17.70;99.90;;;;;;12530035;28;20041;-83
2021/07/31 09:02:13;;;;;;;6.90;2.00;;;17.50;99.90;;;;;;12526917;28;20037;-82
2021/07/31 09:08:16;;;;;;;4.60;2.10;;;17.40;99.90;;;;;;12532085;28;20075;-82
2021/07/31 09:14:19;;;;;;;4.72;2.00;;;17.40;99.90;;;;;;12528240;28;20488;-82
2021/07/31 09:20:21;;;;;;;7.27;2.00;;;17.90;99.90;;;;;;12532990;28;20040;-82
2021/07/31 09:26:37;;;;;;;5.30;2.10;;;17.90;99.90;;;;;;12539288;28;20171;-81
2021/07/31 09:32:44;;;;;;;5.38;1.95;;;18.60;99.90;;;;;;12525753;28;20539;-82
2021/07/31 09:38:48;;;;;;;4.00;1.90;;;18.50;99.90;;;;;;12529307;28;20131;-82
2021/07/31 09:44:50;;;;;;;6.80;1.95;;;18.20;99.90;;;;;;12533554;28;20090;-81
2021/07/31 09:50:51;;;;;;;4.50;1.90;;;17.90;99.90;;;;;;12540208;28;20076;-83
2021/07/31 09:56:55;;;;;;;7.25;2.10;;;18.40;99.90;;;;;;12545355;28;20048;-83
2021/07/31 10:02:57;;;;;;;4.20;1.67;;;18.30;99.90;;;;;;12539438;28;20140;-84
2021/07/31 10:09:05;;;;;;;10.88;2.10;;;18.00;99.90;;;;;;12543249;28;20361;-82
2021/07/31 10:15:09;;;;;;;4.15;1.60;;;18.00;99.90;;;;;;12545182;28;20489;-82
2021/07/31 10:21:16;;;;;;;3.72;1.50;;;18.00;99.90;;;;;;12543219;28;20060;-82
2021/07/31 10:27:19;;;;;;;4.00;1.38;;;18.90;99.90;;;;;;12547031;28;20077;-83
2021/07/31 10:33:46;;;;;;;5.75;1.63;;;19.30;99.90;;;;;;12542667;28;20041;-83
2021/07/31 10:39:48;;;;;;;5.65;1.45;;;19.20;99.90;;;;;;12543686;28;20385;-82
2021/07/31 10:45:50;;;;;;;3.65;1.25;;;18.70;99.90;;;;;;12549827;28;20132;-84
2021/07/31 10:51:52;;;;;;;4.03;1.20;;;18.40;99.90;;;;;;12548015;28;20050;-82
2021/07/31 10:57:53;;;;;;;3.72;1.55;;;18.70;99.90;;;;;;12549607;28;20052;-83
2021/07/31 11:03:57;;;;;;;2.85;1.38;;;18.80;99.90;;;;;;12555872;28;20093;-83
2021/07/31 11:10:42;;;;;;;4.77;1.60;;;18.50;99.90;;;;;;12548950;28;20180;-84
2021/07/31 11:16:43;;;;;;;3.58;1.50;;;18.30;99.90;;;;;;12531022;28;20143;-83
2021/07/31 11:22:46;;;;;;;3.13;1.10;;;18.40;99.90;;;;;;12530098;28;20045;-81
2021/07/31 11:28:48;;;;;;;4.82;1.40;;;18.90;99.90;;;;;;12536150;28;20083;-83
2021/07/31 11:34:50;;;;;;;3.65;1.30;;;18.80;99.90;;;;;;12547873;28;20056;-83
2021/07/31 11:41:10;;;;;;;4.50;1.48;;;18.70;99.90;;;;;;12545287;28;20078;-84
2021/07/31 11:47:12;;;;;;;3.38;1.40;;;18.90;99.90;;;;;;12541718;28;20101;-83
2021/07/31 11:53:23;;;;;;;2.38;1.20;;;18.80;99.90;;;;;;12546030;28;20170;-84
2021/07/31 11:59:30;;;;;;;5.55;1.80;;;18.80;99.90;;;;;;12539722;28;20068;-82
2021/07/31 12:05:38;;;;;;;6.00;1.50;;;18.40;99.90;;;;;;12536439;28;20073;-83
2021/07/31 12:11:41;;;;;;;5.20;1.50;;;18.30;99.90;;;;;;12542801;28;20149;-82
2021/07/31 12:18:05;;;;;;;3.45;1.38;;;18.70;99.90;;;;;;12562756;28;20108;-83
2021/07/31 12:24:17;;;;;;;;;;;18.30;99.90;;;;;;12571414;28;20041;-82
2021/07/31 12:30:27;;;;;;;4.97;1.75;;;18.60;99.90;;;;;;12529853;28;19960;-83
2021/07/31 12:36:29;;;;;;;5.57;1.58;;;18.70;99.90;;;;;;12542722;28;20056;-83
2021/07/31 12:42:31;;;;;;;6.68;1.42;;;18.90;99.90;;;;;;12537181;28;20084;-83
2021/07/31 12:48:33;;;;;;;4.78;1.70;;;18.50;99.90;;;;;;12534030;28;20105;-83
2021/07/31 12:54:34;;;;;;;4.88;1.80;;;18.60;99.90;;;;;;12532518;28;20121;-84
2021/07/31 13:00:37;;;;;;;6.38;2.63;;;18.30;99.90;;;;;;12527718;28;20168;-82
2021/07/31 13:06:39;;;;;;;4.47;2.90;;;17.50;99.90;;;;;;12539562;28;20067;-83
2021/07/31 13:12:41;;;;;;;7.57;3.85;;;17.20;99.90;;;;;;12543515;28;20128;-83
2021/07/31 13:18:43;;;;;;;8.35;4.13;;;17.00;99.90;;;;;;12545124;28;20194;-81
2021/07/31 13:24:45;;;;;;;5.07;3.45;;;17.20;99.90;;;;;;12542235;28;20036;-82
2021/07/31 13:30:46;;;;;;;9.90;3.00;;;17.60;99.90;;;;;;12533665;28;20045;-84
2021/07/31 13:36:50;;;;;;;3.88;2.63;;;18.10;99.90;;;;;;12534411;28;21751;-83
2021/07/31 13:42:54;;;;;;;4.82;2.63;;;18.10;99.90;;;;;;12558775;28;20044;-83
2021/07/31 13:48:56;;;;;;;4.80;2.60;;;18.70;99.90;;;;;;12539515;28;20064;-85
2021/07/31 13:54:59;;;;;;;4.93;2.10;;;18.90;99.90;;;;;;12537482;28;20037;-84
2021/07/31 14:01:01;;;;;;;5.10;2.13;;;19.60;99.90;;;;;;12541027;28;20041;-83
2021/07/31 14:07:03;;;;;;;4.35;1.98;;;20.30;99.90;;;;;;12538609;28;20738;-84
2021/07/31 14:13:05;;;;;;;3.38;1.92;;;20.40;99.90;;;;;;12531287;28;20187;-82
2021/07/31 14:19:07;;;;;;;4.25;1.95;;;20.10;99.90;;;;;;12527533;28;20121;-83
2021/07/31 14:25:09;;;;;;;3.50;1.88;;;19.40;99.90;;;;;;12530962;28;20045;-84
2021/07/31 14:31:11;;;;;;;4.63;2.53;;;19.20;99.90;;;;;;12534147;28;20117;-83
2021/07/31 14:37:14;;;;;;;4.30;1.80;;;19.60;99.90;;;;;;12539692;28;20117;-82
2021/07/31 14:43:16;;;;;;;3.65;2.13;;;19.30;99.90;;;;;;12543616;28;20047;-83
2021/07/31 14:49:18;;;;;;;3.38;2.08;;;19.20;99.90;;;;;;12549409;28;20113;-84
2021/07/31 14:55:20;;;;;;;5.32;2.20;;;19.20;99.90;;;;;;12544489;28;20100;-83
2021/07/31 15:01:21;;;;;;;4.20;2.05;;;19.10;99.90;;;;;;12544617;28;20051;-84
2021/07/31 15:07:23;;;;;;;3.10;1.77;;;19.60;99.90;;;;;;12543205;28;20231;-83
2021/07/31 15:13:25;;;;;;;3.00;1.70;;;20.20;99.90;;;;;;12540973;28;20511;-82
2021/07/31 15:19:28;;;;;;;5.80;1.80;;;20.30;99.90;;;;;;12545505;28;20528;-84
2021/07/31 15:25:29;;;;;;;4.63;1.83;;;20.00;99.90;;;;;;12540234;28;20045;-83
2021/07/31 15:31:31;;;;;;;4.78;1.70;;;20.10;99.90;;;;;;12540323;28;20178;-84
2021/07/31 15:37:33;;;;;;;4.25;1.65;;;19.60;99.90;;;;;;12544738;28;20136;-85
2021/07/31 15:43:35;;;;;;;3.65;1.73;;;19.80;99.90;;;;;;12541919;28;20099;-84
2021/07/31 15:49:37;;;;;;;2.10;1.45;;;19.60;99.90;;;;;;12543826;28;20053;-84
2021/07/31 15:55:39;;;;;;;2.85;1.63;;;19.90;99.90;;;;;;12543468;28;20095;-84
2021/07/31 16:01:41;;;;;;;3.95;1.70;;;19.60;99.90;;;;;;12585570;28;20045;-84
2021/07/31 16:07:43;;;;;;;3.08;1.70;;;19.50;99.90;;;;;;12541531;28;20078;-84
2021/07/31 16:13:45;;;;;;;3.75;1.92;;;19.50;99.90;;;;;;12537670;28;20053;-82
2021/07/31 16:19:47;;;;;;;3.05;1.70;;;19.50;99.90;;;;;;12532411;28;20537;-83
2021/07/31 16:25:50;;;;;;;2.05;1.13;;;19.30;99.90;;;;;;12536366;28;20064;-83
2021/07/31 16:31:52;;;;;;;2.42;1.30;;;19.90;99.90;;;;;;12532725;28;20044;-83
2021/07/31 16:37:54;;;;;;;4.60;1.27;;;20.10;99.90;;;;;;12530624;28;20045;-83
2021/07/31 16:43:56;;;;;;;3.00;1.27;;;19.70;99.90;;;;;;12527008;28;20093;-84
2021/07/31 16:49:57;;;;;;;2.40;1.58;;;19.50;99.90;;;;;;12529033;28;20052;-84
2021/07/31 16:55:59;;;;;;;7.25;3.97;;;19.50;99.90;;;;;;12530365;28;20792;-83
2021/07/31 17:02:01;;;;;;;4.35;2.00;;;19.30;99.90;;;;;;12523803;28;20045;-83
2021/07/31 17:08:03;;;;;;;5.50;2.05;;;19.10;99.90;;;;;;12532641;28;20049;-85
2021/07/31 17:14:06;;;;;;;4.18;1.80;;;19.00;99.90;;;;;;12532307;28;20483;-85
2021/07/31 17:20:08;;;;;;;3.47;1.52;;;19.40;99.90;;;;;;12527349;28;20845;-84
2021/07/31 17:26:10;;;;;;;2.70;1.30;;;20.40;99.90;;;;;;12533478;28;20045;-84
2021/07/31 17:32:12;;;;;;;3.42;1.48;;;20.40;99.90;;;;;;12531802;28;20124;-84
2021/07/31 17:38:14;;;;;;;4.78;1.58;;;21.00;99.90;;;;;;12540434;28;20052;-84
2021/07/31 17:44:16;;;;;;;3.85;1.48;;;21.00;99.90;;;;;;12530806;28;20048;-84
2021/07/31 17:50:18;;;;;;;2.10;1.25;;;20.40;99.90;;;;;;12540918;28;20052;-85
2021/07/31 17:56:20;;;;;;;3.25;1.45;;;20.80;99.90;;;;;;12532206;28;20076;-85
2021/07/31 18:02:23;;;;;;;5.65;2.08;;;20.50;99.90;;;;;;12532579;28;20065;-84
2021/07/31 18:08:24;;;;;;;5.32;1.40;;;19.70;99.90;;;;;;12540779;28;20106;-85
2021/07/31 18:14:26;;;;;;;2.33;1.60;;;19.10;99.90;;;;;;12524140;28;20053;-84
2021/07/31 18:20:28;;;;;;;3.45;1.50;;;18.80;99.90;;;;;;12540643;28;20122;-84
2021/07/31 18:26:30;;;;;;;2.05;1.50;;;18.50;99.90;;;;;;12543625;28;20484;-84
2021/07/31 18:32:32;;;;;;;3.63;1.42;;;18.40;99.90;;;;;;12544419;28;20079;-85
2021/07/31 18:38:35;;;;;;;3.50;2.30;;;18.50;99.90;;;;;;12550257;28;20585;-83
2021/07/31 18:44:36;;;;;;;4.63;2.00;;;18.30;99.90;;;;;;12541676;28;20242;-84
2021/07/31 18:50:38;;;;;;;5.65;2.17;;;18.10;99.90;;;;;;12539700;28;20671;-85
2021/07/31 18:56:40;;;;;;;4.45;2.38;;;18.60;99.90;;;;;;12543423;28;20492;-84
2021/07/31 19:02:42;;;;;;;5.13;2.78;;;18.20;99.90;;;;;;12553901;28;20114;-84
2021/07/31 19:08:44;;;;;;;3.92;2.63;;;17.90;99.90;;;;;;12555687;28;20171;-85
2021/07/31 19:14:45;;;;;;;9.88;3.90;;;17.80;99.90;;;;;;12558211;28;20080;-84
2021/07/31 19:20:47;;;;;;;7.32;3.85;;;17.60;99.90;;;;;;12556997;28;20128;-85
2021/07/31 19:26:49;;;;;;;7.82;3.97;;;17.70;99.90;;;;;;12544314;28;20044;-85
2021/07/31 19:32:52;;;;;;;6.18;4.88;;;17.30;99.90;;;;;;12568571;28;20159;-85
2021/07/31 19:38:53;;;;;;;5.93;4.43;;;16.90;99.90;;;;;;12566977;28;20053;-84
2021/07/31 19:44:56;;;;;;;5.63;4.18;;;16.60;99.90;;;;;;12556674;28;20127;-84
2021/07/31 19:50:57;;;;;;;5.03;3.85;;;16.20;99.90;;;;;;12559774;28;20677;-84
2021/07/31 19:56:59;;;;;;;6.35;5.18;;;16.20;99.90;;;;;;12546626;28;20092;-85
2021/07/31 20:03:01;;;;;;;6.53;3.75;;;15.90;99.90;;;;;;12540161;28;20144;-85
2021/07/31 20:09:03;;;;;;;4.78;3.03;;;16.10;99.90;;;;;;12545603;28;20782;-85
2021/07/31 20:15:07;;;;;;;4.43;2.88;;;15.90;99.90;;;;;;12536339;28;20048;-85
2021/07/31 20:21:08;;;;;;;4.68;2.90;;;15.90;99.90;;;;;;12540889;28;20795;-85
2021/07/31 20:27:10;;;;;;;5.65;3.65;;;16.10;99.90;;;;;;12532771;28;20194;-85
2021/07/31 20:33:12;;;;;;;4.75;3.53;;;15.80;99.90;;;;;;12533384;28;20061;-85
2021/07/31 20:39:14;;;;;;;5.88;3.20;;;16.10;99.90;;;;;;12535763;28;20552;-85
2021/07/31 20:45:16;;;;;;;6.22;3.65;;;15.60;99.90;;;;;;12540988;28;20151;-84
2021/07/31 20:51:18;;;;;;;5.90;3.30;;;15.50;99.90;;;;;;12540053;28;20108;-85
2021/07/31 20:57:19;;;;;;;9.38;3.95;;;15.50;99.90;;;;;;12535141;28;20101;-85
2021/07/31 21:03:21;;;;;;;6.18;3.53;;;15.50;99.90;;;;;;12538796;28;20603;-85
2021/07/31 21:09:23;;;;;;;4.82;3.25;;;15.40;99.90;;;;;;12540005;28;20572;-84
2021/07/31 21:15:25;;;;;;;6.10;3.63;;;15.40;99.90;;;;;;12537446;28;20714;-85
2021/07/31 21:21:27;;;;;;;6.72;4.00;;;15.40;99.90;;;;;;12529432;28;20493;-85
2021/07/31 21:27:29;;;;;;;5.55;4.28;;;14.90;99.90;;;;;;12523520;28;20136;-84
2021/07/31 21:33:31;;;;;;;7.80;4.78;;;14.90;99.90;;;;;;12540185;28;20077;-85
2021/07/31 21:39:33;;;;;;;7.18;4.45;;;15.20;99.90;;;;;;12525513;28;20514;-85
2021/07/31 21:45:35;;;;;;;6.35;4.70;;;15.30;99.90;;;;;;12531441;28;20068;-84
2021/07/31 21:51:38;;;;;;;6.10;4.28;;;15.40;99.90;;;;;;12542215;28;20168;-85
2021/07/31 21:57:40;;;;;;;5.95;3.85;;;15.40;99.90;;;;;;12536617;28;20082;-84
2021/07/31 22:03:42;;;;;;;7.15;3.80;;;15.20;99.90;;;;;;12522981;28;20072;-83
2021/07/31 22:09:44;;;;;;;5.63;3.90;;;15.30;99.90;;;;;;12529913;28;20145;-84
2021/07/31 22:15:45;;;;;;;7.63;4.38;;;15.30;99.90;;;;;;12528768;28;20057;-84
2021/07/31 22:21:47;;;;;;;7.13;4.32;;;15.10;99.90;;;;;;12539702;28;20530;-84
2021/07/31 22:27:49;;;;;;;7.82;4.85;;;15.20;99.90;;;;;;12530987;28;20083;-84
2021/07/31 22:33:51;;;;;;;12.13;4.53;;;15.20;99.90;;;;;;12532801;28;20143;-83
2021/07/31 22:39:53;;;;;;;6.95;4.40;;;15.20;99.90;;;;;;12536266;28;20049;-84
2021/07/31 22:45:55;;;;;;;9.93;4.57;;;15.20;99.90;;;;;;12528260;28;20098;-84
2021/07/31 22:51:57;;;;;;;6.65;4.78;;;15.20;99.90;;;;;;12538895;28;20059;-84
2021/07/31 22:57:58;;;;;;;9.15;4.90;;;15.20;99.90;;;;;;12536343;28;20099;-84
2021/07/31 23:04:03;;;;;;;8.70;4.95;;;15.70;99.90;;;;;;12546429;28;20126;-84
2021/07/31 23:10:06;;;;;;;9.77;5.55;;;15.00;99.90;;;;;;12570795;28;20060;-84
2021/07/31 23:16:16;;;;;;;6.40;4.75;;;15.20;99.90;;;;;;12568576;28;20106;-84
2021/07/31 23:22:18;;;;;;;8.57;4.80;;;15.50;99.90;;;;;;12528365;28;20139;-83
2021/07/31 23:28:20;;;;;;;8.25;5.68;;;15.40;99.90;;;;;;12544069;28;20112;-84
2021/07/31 23:34:23;;;;;;;10.45;4.93;;;15.10;99.90;;;;;;12530354;28;20116;-84
2021/07/31 23:40:24;;;;;;;8.48;4.50;;;15.50;99.90;;;;;;12553932;28;20072;-84
2021/07/31 23:46:26;;;;;;;8.98;4.90;;;15.20;99.90;;;;;;12542634;28;20044;-84
2021/07/31 23:52:29;;;;;;;6.75;5.13;;;15.60;99.90;;;;;;12535959;28;20048;-83
2021/07/31 23:58:31;;;;;;;7.32;5.10;;;15.20;99.90;;;;;;12539623;28;20450;-84
